Time;durP1;ratioP1;P1;durP2;ratioP2;P2;SDS_P1;SDS_P2;PMS_P1;PMS_P2;Temp;Humidity;BMP_temperature;BMP_pressure;BME280_temperature;BME280_humidity;BME280_pressure;Samples;Min_cycle;Max_cycle;Signal;HPM_P1;HPM_P2
2022/01/20 00:03:54;;;;;;;8.70;7.80;;;;;;;;;;5032774;28;21993;-51
2022/01/20 00:07:23;;;;;;;11.83;8.20;;;;;;;;;;5032426;28;20981;-50
2022/01/20 00:09:25;;;;;;;7.67;6.90;;;;;;;;;;5032442;28;20420;-51
2022/01/20 00:28:25;;;;;;;6.80;5.90;;;;;;;;;;5032158;28;20474;-54
2022/01/20 00:31:09;;;;;;;8.70;7.70;;;;;;;;;;5032589;28;20435;-54
2022/01/20 00:33:49;;;;;;;11.53;6.30;;;;;;;;;;5032666;28;20719;-51
2022/01/20 00:38:59;;;;;;;8.57;7.73;;;;;;;;;;5032791;28;20490;-51
2022/01/20 00:41:25;;;;;;;7.63;6.90;;;;;;;;;;5032559;28;20444;-53
2022/01/20 00:43:51;;;;;;;11.50;8.70;;;;;;;;;;5032464;28;21679;-52
2022/01/20 00:46:17;;;;;;;12.30;8.60;;;;;;;;;;5047658;28;20538;-51
2022/01/20 00:48:43;;;;;;;9.20;7.87;;;;;;;;;;5032242;28;20893;-50
2022/01/20 00:51:09;;;;;;;11.60;7.70;;;;;;;;;;5032260;28;20412;-51
2022/01/20 00:53:35;;;;;;;14.67;8.97;;;;;;;;;;5032413;28;20409;-50
2022/01/20 00:56:02;;;;;;;12.47;8.77;;;;;;;;;;5032288;28;20420;-51
2022/01/20 00:58:28;;;;;;;10.20;7.57;;;;;;;;;;5032358;28;20477;-52
2022/01/20 01:00:54;;;;;;;14.33;7.87;;;;;;;;;;5032160;28;20489;-52
2022/01/20 01:03:21;;;;;;;11.40;7.97;;;;;;;;;;5032114;28;20404;-51
2022/01/20 01:06:09;;;;;;;11.80;8.63;;;;;;;;;;5031863;28;20405;-52
2022/01/20 01:08:35;;;;;;;9.83;7.40;;;;;;;;;;5047367;28;20436;-51
2022/01/20 01:11:01;;;;;;;7.23;6.33;;;;;;;;;;5032136;28;20417;-51
2022/01/20 01:13:29;;;;;;;7.60;6.67;;;;;;;;;;5032233;28;20427;-52
2022/01/20 01:15:55;;;;;;;7.90;7.10;;;;;;;;;;5047345;28;20912;-51
2022/01/20 01:21:13;;;;;;;8.57;7.40;;;;;;;;;;5032096;28;20813;-52
2022/01/20 01:23:41;;;;;;;15.00;7.23;;;;;;;;;;5032320;28;20433;-56
2022/01/20 01:26:18;;;;;;;7.43;6.30;;;;;;;;;;5035602;28;20459;-51
2022/01/20 01:28:45;;;;;;;9.80;6.20;;;;;;;;;;5035672;28;20485;-53
2022/01/20 01:34:00;;;;;;;12.77;5.80;;;;;;;;;;5035426;28;20543;-51
2022/01/20 01:36:33;;;;;;;10.73;6.10;;;;;;;;;;5035253;28;20483;-50
2022/01/20 01:38:59;;;;;;;10.53;6.73;;;;;;;;;;5035493;28;20909;-53
2022/01/20 01:41:33;;;;;;;10.83;6.37;;;;;;;;;;5035199;28;20792;-51
2022/01/20 01:44:03;;;;;;;7.57;5.97;;;;;;;;;;5035608;28;20746;-51
2022/01/20 01:46:29;;;;;;;11.70;5.33;;;;;;;;;;5035540;28;20522;-52
2022/01/20 01:48:57;;;;;;;14.73;5.40;;;;;;;;;;5035059;28;20898;-51
2022/01/20 01:51:23;;;;;;;10.07;4.90;;;;;;;;;;5035296;28;20519;-51
2022/01/20 01:53:49;;;;;;;10.13;4.47;;;;;;;;;;5035272;28;20765;-51
2022/01/20 01:56:15;;;;;;;16.60;4.87;;;;;;;;;;5035057;28;20952;-52
2022/01/20 01:58:41;;;;;;;10.63;5.47;;;;;;;;;;5035072;28;20820;-53
2022/01/20 02:01:07;;;;;;;9.03;4.00;;;;;;;;;;5034950;28;20482;-50
2022/01/20 02:03:42;;;;;;;12.63;4.80;;;;;;;;;;5050167;28;20420;-51
2022/01/20 02:09:14;;;;;;;11.97;4.47;;;;;;;;;;5035132;28;20471;-51
2022/01/20 02:19:56;;;;;;;11.70;4.93;;;;;;;;;;5034675;28;20419;-53
2022/01/20 02:22:22;;;;;;;11.43;4.87;;;;;;;;;;5034422;28;20544;-50
2022/01/20 02:24:48;;;;;;;18.73;4.60;;;;;;;;;;5034472;28;20416;-49
2022/01/20 02:27:14;;;;;;;14.37;4.20;;;;;;;;;;5034356;28;20472;-53
2022/01/20 02:29:41;;;;;;;4.63;3.80;;;;;;;;;;5034296;28;20407;-51
2022/01/20 02:32:07;;;;;;;13.60;4.53;;;;;;;;;;5034353;28;20439;-51
2022/01/20 02:34:33;;;;;;;12.00;3.40;;;;;;;;;;5034284;28;20474;-49
2022/01/20 02:37:04;;;;;;;6.57;4.00;;;;;;;;;;5033173;28;20801;-50
2022/01/20 02:47:16;;;;;;;11.90;5.17;;;;;;;;;;5033191;28;20566;-50
2022/01/20 02:49:42;;;;;;;7.03;4.63;;;;;;;;;;5034008;28;20439;-49
2022/01/20 02:52:08;;;;;;;7.90;5.00;;;;;;;;;;5034002;28;20413;-52
2022/01/20 02:54:34;;;;;;;5.83;4.70;;;;;;;;;;5033852;28;20447;-50
2022/01/20 02:57:01;;;;;;;5.87;4.00;;;;;;;;;;5034029;28;20828;-51
2022/01/20 02:59:27;;;;;;;13.50;5.00;;;;;;;;;;5034156;28;20407;-53
2022/01/20 03:01:53;;;;;;;12.80;5.17;;;;;;;;;;5034070;28;20512;-55
2022/01/20 03:04:24;;;;;;;4.80;3.97;;;;;;;;;;5034028;28;20514;-58
2022/01/20 03:06:50;;;;;;;8.80;5.07;;;;;;;;;;5033558;28;20833;-52
2022/01/20 03:09:16;;;;;;;13.60;4.93;;;;;;;;;;5033795;28;20409;-51
2022/01/20 03:11:42;;;;;;;7.30;4.80;;;;;;;;;;5033578;28;20920;-51
2022/01/20 03:14:08;;;;;;;6.57;3.73;;;;;;;;;;5033494;28;20416;-51
2022/01/20 03:16:34;;;;;;;9.70;4.87;;;;;;;;;;5033525;28;20783;-50
2022/01/20 03:19:00;;;;;;;8.93;3.80;;;;;;;;;;5033588;28;20454;-51
2022/01/20 03:21:26;;;;;;;6.37;4.40;;;;;;;;;;5033238;28;20989;-54
2022/01/20 03:23:52;;;;;;;5.33;4.60;;;;;;;;;;5033331;28;20413;-52
2022/01/20 03:26:18;;;;;;;7.30;3.90;;;;;;;;;;5048755;28;20822;-50
2022/01/20 03:28:44;;;;;;;5.10;4.60;;;;;;;;;;5032341;28;20453;-51
2022/01/20 03:31:10;;;;;;;6.20;4.40;;;;;;;;;;5033621;28;20417;-50
2022/01/20 03:33:36;;;;;;;9.07;3.70;;;;;;;;;;5033593;28;20427;-50
2022/01/20 03:36:02;;;;;;;11.00;4.00;;;;;;;;;;5033316;28;20444;-50
2022/01/20 03:38:28;;;;;;;18.17;5.10;;;;;;;;;;5033542;28;20770;-50
2022/01/20 03:40:54;;;;;;;5.53;4.30;;;;;;;;;;5031987;28;20440;-50
2022/01/20 03:43:20;;;;;;;5.17;3.53;;;;;;;;;;5032899;28;20443;-49
2022/01/20 03:45:50;;;;;;;12.57;4.93;;;;;;;;;;5033019;28;20405;-50
2022/01/20 03:48:16;;;;;;;8.10;4.53;;;;;;;;;;5032916;28;20494;-50
2022/01/20 03:51:00;;;;;;;25.87;4.07;;;;;;;;;;5032931;28;20408;-50
2022/01/20 03:53:27;;;;;;;8.80;4.00;;;;;;;;;;5032950;28;20420;-51
2022/01/20 03:55:53;;;;;;;10.93;3.90;;;;;;;;;;5032740;28;20431;-50
2022/01/20 03:58:19;;;;;;;5.70;3.37;;;;;;;;;;5032767;28;20897;-51
2022/01/20 04:00:45;;;;;;;9.30;4.17;;;;;;;;;;5032689;28;20408;-53
2022/01/20 04:03:16;;;;;;;11.70;4.30;;;;;;;;;;5032700;28;20416;-50
2022/01/20 04:06:03;;;;;;;18.93;4.93;;;;;;;;;;5032520;28;20400;-51
2022/01/20 04:08:33;;;;;;;15.27;4.87;;;;;;;;;;5032574;28;20424;-51
2022/01/20 04:11:04;;;;;;;7.83;4.37;;;;;;;;;;5032983;28;20821;-56
2022/01/20 04:13:31;;;;;;;17.00;4.40;;;;;;;;;;5032671;28;20412;-63
2022/01/20 04:16:11;;;;;;;11.67;3.90;;;;;;;;;;5032887;28;20413;-56
2022/01/20 04:18:37;;;;;;;9.57;4.50;;;;;;;;;;5032524;28;20409;-61
2022/01/20 04:21:03;;;;;;;14.47;4.80;;;;;;;;;;5032415;28;20424;-56
2022/01/20 04:23:30;;;;;;;16.20;5.00;;;;;;;;;;5032468;28;20456;-59
2022/01/20 04:25:56;;;;;;;18.50;5.03;;;;;;;;;;5032225;28;20427;-51
2022/01/20 04:28:22;;;;;;;13.20;4.10;;;;;;;;;;5047927;28;20428;-51
2022/01/20 04:30:48;;;;;;;15.40;4.30;;;;;;;;;;5032302;28;20433;-50
2022/01/20 04:33:14;;;;;;;13.37;4.87;;;;;;;;;;5032443;28;20466;-51
2022/01/20 04:35:40;;;;;;;15.00;5.50;;;;;;;;;;5032230;28;20408;-50
2022/01/20 04:38:07;;;;;;;15.63;4.23;;;;;;;;;;5032106;28;20409;-53
2022/01/20 04:40:39;;;;;;;16.03;5.17;;;;;;;;;;5032203;28;20412;-50
2022/01/20 04:43:06;;;;;;;16.50;5.70;;;;;;;;;;5047253;28;20421;-50
2022/01/20 04:45:38;;;;;;;26.47;6.60;;;;;;;;;;5032443;28;20538;-61
2022/01/20 04:48:28;;;;;;;12.43;5.07;;;;;;;;;;5032326;28;20483;-49
2022/01/20 04:59:07;;;;;;;26.97;4.90;;;;;;;;;;5032933;28;20515;-50
2022/01/20 05:01:33;;;;;;;12.73;4.77;;;;;;;;;;5035970;28;20487;-50
2022/01/20 05:04:02;;;;;;;13.23;4.23;;;;;;;;;;5036049;28;20416;-50
2022/01/20 05:06:28;;;;;;;11.80;4.30;;;;;;;;;;5051231;28;20476;-52
2022/01/20 05:08:54;;;;;;;10.03;5.77;;;;;;;;;;5035908;28;20430;-51
2022/01/20 05:11:20;;;;;;;7.90;3.80;;;;;;;;;;5036085;28;20448;-50
2022/01/20 05:13:47;;;;;;;4.27;3.87;;;;;;;;;;5035737;28;20546;-51
2022/01/20 05:16:12;;;;;;;17.97;4.63;;;;;;;;;;5035717;28;20411;-52
2022/01/20 05:18:38;;;;;;;12.97;4.37;;;;;;;;;;5034482;28;20856;-52
2022/01/20 05:21:04;;;;;;;12.20;5.37;;;;;;;;;;5035848;28;20463;-51
2022/01/20 05:23:30;;;;;;;17.53;4.57;;;;;;;;;;5050787;28;21085;-54
2022/01/20 05:25:56;;;;;;;11.13;5.60;;;;;;;;;;5035831;28;20507;-50
2022/01/20 05:28:22;;;;;;;19.83;5.90;;;;;;;;;;5035243;28;20424;-52
2022/01/20 05:30:48;;;;;;;19.33;5.37;;;;;;;;;;5050967;28;20458;-51
2022/01/20 05:33:14;;;;;;;4.37;3.97;;;;;;;;;;5035503;28;20816;-51
2022/01/20 05:35:40;;;;;;;12.40;6.70;;;;;;;;;;5035255;28;20462;-50
2022/01/20 05:38:07;;;;;;;9.87;5.23;;;;;;;;;;5035265;28;20409;-51
2022/01/20 05:40:34;;;;;;;9.43;4.13;;;;;;;;;;5035438;28;20416;-50
2022/01/20 05:43:00;;;;;;;23.17;5.23;;;;;;;;;;5035493;28;20417;-50
2022/01/20 05:45:27;;;;;;;14.50;4.70;;;;;;;;;;5035039;28;20461;-50
2022/01/20 05:48:00;;;;;;;7.77;4.50;;;;;;;;;;5050185;28;20480;-51
2022/01/20 05:50:26;;;;;;;11.93;4.90;;;;;;;;;;5034834;28;20407;-50
2022/01/20 05:52:52;;;;;;;11.40;4.13;;;;;;;;;;5034988;28;20413;-52
2022/01/20 05:55:19;;;;;;;8.80;4.43;;;;;;;;;;5034822;28;20908;-51
2022/01/20 05:57:46;;;;;;;10.87;4.70;;;;;;;;;;5034733;28;20465;-53
2022/01/20 06:00:14;;;;;;;8.33;4.00;;;;;;;;;;5034463;28;20416;-49
2022/01/20 06:05:25;;;;;;;8.33;4.30;;;;;;;;;;5034816;28;20412;-51
2022/01/20 06:07:51;;;;;;;17.83;4.40;;;;;;;;;;5035012;28;21002;-52
2022/01/20 06:10:18;;;;;;;6.03;4.10;;;;;;;;;;5034233;28;20417;-55
2022/01/20 06:12:44;;;;;;;11.53;3.67;;;;;;;;;;5034594;28;20492;-51
2022/01/20 06:15:10;;;;;;;8.03;4.50;;;;;;;;;;5034244;28;20409;-49
2022/01/20 06:17:37;;;;;;;10.73;4.20;;;;;;;;;;5034440;28;20456;-48
2022/01/20 06:20:07;;;;;;;15.10;4.67;;;;;;;;;;5034244;28;20830;-50
2022/01/20 06:22:33;;;;;;;10.70;3.67;;;;;;;;;;5034197;28;20460;-50
2022/01/20 06:24:59;;;;;;;14.33;5.20;;;;;;;;;;5034389;28;20405;-51
2022/01/20 06:27:25;;;;;;;9.67;4.03;;;;;;;;;;5034114;28;20472;-51
2022/01/20 06:29:51;;;;;;;12.63;4.00;;;;;;;;;;5034131;28;20532;-51
2022/01/20 06:32:17;;;;;;;4.57;3.90;;;;;;;;;;5049236;28;20428;-52
2022/01/20 06:34:43;;;;;;;4.57;4.10;;;;;;;;;;5049216;28;20423;-51
2022/01/20 06:37:09;;;;;;;6.80;3.70;;;;;;;;;;5033235;28;20413;-50
2022/01/20 06:39:35;;;;;;;4.90;3.80;;;;;;;;;;5033868;28;20416;-50
2022/01/20 06:42:01;;;;;;;5.20;3.63;;;;;;;;;;5049310;28;20443;-50
2022/01/20 06:44:27;;;;;;;12.57;4.20;;;;;;;;;;5034171;28;20420;-49
2022/01/20 06:46:53;;;;;;;13.83;3.50;;;;;;;;;;5049053;28;20479;-51
2022/01/20 06:49:19;;;;;;;3.50;3.03;;;;;;;;;;5033998;28;20404;-52
2022/01/20 06:51:45;;;;;;;3.97;3.40;;;;;;;;;;5033325;28;20499;-51
2022/01/20 06:54:12;;;;;;;16.73;4.23;;;;;;;;;;5033323;28;20483;-55
2022/01/20 06:56:38;;;;;;;6.40;4.13;;;;;;;;;;5033372;28;20559;-48
2022/01/20 06:59:05;;;;;;;6.27;3.80;;;;;;;;;;5033458;28;20405;-56
2022/01/20 07:01:31;;;;;;;4.17;3.83;;;;;;;;;;5040631;28;20464;-49
2022/01/20 07:03:57;;;;;;;10.40;4.10;;;;;;;;;;5032054;28;20388;-54
2022/01/20 07:06:23;;;;;;;9.60;3.60;;;;;;;;;;5033077;28;20452;-49
2022/01/20 07:08:49;;;;;;;8.43;4.30;;;;;;;;;;5030529;28;20413;-55
2022/01/20 07:11:15;;;;;;;16.70;4.73;;;;;;;;;;5033171;28;20435;-51
2022/01/20 07:13:41;;;;;;;15.20;3.87;;;;;;;;;;5033154;28;20801;-49
2022/01/20 07:16:07;;;;;;;3.50;3.20;;;;;;;;;;5033003;28;20400;-50
2022/01/20 07:18:33;;;;;;;4.83;3.67;;;;;;;;;;5033036;28;20524;-59
2022/01/20 07:20:59;;;;;;;19.63;4.07;;;;;;;;;;5033001;28;20409;-61
2022/01/20 07:23:25;;;;;;;7.90;3.57;;;;;;;;;;5031920;28;20513;-52
2022/01/20 07:25:51;;;;;;;6.07;3.50;;;;;;;;;;5032764;28;20409;-49
2022/01/20 07:28:17;;;;;;;6.33;3.60;;;;;;;;;;5032666;28;20487;-48
2022/01/20 07:30:43;;;;;;;10.07;3.40;;;;;;;;;;5032778;28;20520;-56
2022/01/20 07:33:10;;;;;;;5.33;3.50;;;;;;;;;;5032589;28;20405;-60
2022/01/20 07:35:37;;;;;;;6.03;3.50;;;;;;;;;;5032817;28;20495;-50
2022/01/20 07:38:04;;;;;;;9.73;3.67;;;;;;;;;;5032575;28;20782;-58
2022/01/20 07:40:31;;;;;;;12.53;3.50;;;;;;;;;;5030192;28;20413;-50
2022/01/20 07:42:57;;;;;;;5.13;3.50;;;;;;;;;;5032947;28;20432;-51
2022/01/20 07:45:23;;;;;;;6.80;3.63;;;;;;;;;;5032337;28;20511;-53
2022/01/20 07:47:49;;;;;;;7.13;3.50;;;;;;;;;;5029786;28;20468;-52
2022/01/20 07:50:15;;;;;;;5.43;3.10;;;;;;;;;;5030873;28;20902;-56
2022/01/20 07:52:41;;;;;;;4.73;3.00;;;;;;;;;;5032251;28;20770;-51
2022/01/20 07:55:07;;;;;;;9.30;4.13;;;;;;;;;;5032191;28;20437;-52
2022/01/20 07:57:33;;;;;;;3.93;3.17;;;;;;;;;;5032271;28;21003;-52
2022/01/20 08:00:00;;;;;;;10.63;3.50;;;;;;;;;;5031174;28;20409;-49
2022/01/20 08:02:26;;;;;;;3.90;3.23;;;;;;;;;;5033952;28;20420;-51
2022/01/20 08:04:52;;;;;;;4.60;3.50;;;;;;;;;;5031859;28;20408;-50
2022/01/20 08:07:19;;;;;;;6.07;3.87;;;;;;;;;;5031638;28;20468;-52
2022/01/20 08:09:45;;;;;;;13.90;3.03;;;;;;;;;;5031703;28;20909;-49
2022/01/20 08:12:11;;;;;;;5.07;3.13;;;;;;;;;;5031831;28;20766;-51
2022/01/20 08:14:39;;;;;;;3.77;3.30;;;;;;;;;;5030145;28;20439;-48
2022/01/20 08:17:05;;;;;;;8.57;3.80;;;;;;;;;;5031904;28;20500;-54
2022/01/20 08:19:31;;;;;;;4.77;3.37;;;;;;;;;;5031822;28;20415;-52
2022/01/20 08:21:57;;;;;;;10.20;4.20;;;;;;;;;;5031725;28;20456;-52
2022/01/20 08:24:23;;;;;;;14.10;3.90;;;;;;;;;;5031625;28;20829;-55
2022/01/20 08:26:49;;;;;;;7.83;3.07;;;;;;;;;;5031679;28;20474;-54
2022/01/20 08:29:15;;;;;;;4.30;3.10;;;;;;;;;;5031912;28;20476;-59
2022/01/20 08:31:41;;;;;;;8.53;3.40;;;;;;;;;;5031759;28;20916;-49
2022/01/20 08:34:07;;;;;;;6.07;3.73;;;;;;;;;;5032530;28;20436;-51
2022/01/20 08:36:33;;;;;;;5.10;3.67;;;;;;;;;;5036001;28;20409;-49
2022/01/20 08:38:59;;;;;;;8.47;4.40;;;;;;;;;;5036048;28;20936;-52
2022/01/20 08:41:25;;;;;;;9.93;3.17;;;;;;;;;;5034355;28;20408;-51
2022/01/20 08:43:51;;;;;;;13.13;3.60;;;;;;;;;;5035999;28;20879;-50
2022/01/20 08:46:20;;;;;;;11.73;3.50;;;;;;;;;;5035546;28;20495;-50
2022/01/20 08:48:46;;;;;;;6.97;3.40;;;;;;;;;;5035247;28;20426;-49
2022/01/20 08:51:12;;;;;;;4.90;3.20;;;;;;;;;;5035577;28;20455;-49
2022/01/20 08:53:38;;;;;;;11.07;4.07;;;;;;;;;;5035734;28;20404;-51
2022/01/20 08:56:04;;;;;;;15.03;3.70;;;;;;;;;;5035466;28;20925;-52
2022/01/20 08:58:31;;;;;;;10.27;3.90;;;;;;;;;;5035497;28;20409;-51
2022/01/20 09:00:57;;;;;;;4.53;3.10;;;;;;;;;;5035566;28;20408;-53
2022/01/20 09:03:23;;;;;;;7.80;4.00;;;;;;;;;;5034086;28;20777;-50
2022/01/20 09:05:49;;;;;;;3.73;3.13;;;;;;;;;;5035151;28;20460;-51
2022/01/20 09:08:16;;;;;;;5.33;3.80;;;;;;;;;;5035132;28;20935;-54
2022/01/20 09:10:47;;;;;;;12.53;3.80;;;;;;;;;;5035308;28;20889;-60
2022/01/20 09:15:58;;;;;;;8.07;3.77;;;;;;;;;;5035200;28;20447;-57
2022/01/20 09:18:25;;;;;;;4.00;3.40;;;;;;;;;;5035237;28;20440;-56
2022/01/20 09:20:51;;;;;;;3.73;3.30;;;;;;;;;;5034916;28;20419;-62
2022/01/20 09:23:17;;;;;;;5.47;3.43;;;;;;;;;;5034767;28;20456;-55
2022/01/20 09:25:44;;;;;;;4.40;3.23;;;;;;;;;;5034670;28;20462;-51
2022/01/20 09:28:10;;;;;;;5.23;3.77;;;;;;;;;;5035136;28;20545;-54
2022/01/20 09:30:38;;;;;;;12.60;4.17;;;;;;;;;;5035017;28;20419;-53
2022/01/20 09:35:31;;;;;;;10.07;4.03;;;;;;;;;;5035194;28;20409;-58
2022/01/20 09:37:58;;;;;;;2.97;2.77;;;;;;;;;;5033820;28;20416;-52
2022/01/20 09:40:25;;;;;;;10.30;3.70;;;;;;;;;;5034119;28;20419;-55
2022/01/20 09:42:51;;;;;;;7.07;3.20;;;;;;;;;;5034084;28;20412;-60
2022/01/20 09:45:17;;;;;;;8.03;3.40;;;;;;;;;;5033357;28;20400;-54
2022/01/20 09:47:44;;;;;;;4.30;3.73;;;;;;;;;;5034097;28;21042;-60
2022/01/20 09:50:11;;;;;;;8.07;4.17;;;;;;;;;;5033616;28;20409;-50
2022/01/20 09:52:37;;;;;;;9.13;4.00;;;;;;;;;;5034054;28;20503;-54
2022/01/20 09:55:03;;;;;;;15.60;4.17;;;;;;;;;;5033780;28;20500;-57
2022/01/20 09:57:30;;;;;;;15.33;4.03;;;;;;;;;;5032587;28;20417;-59
2022/01/20 09:59:56;;;;;;;10.23;3.83;;;;;;;;;;5033760;28;20420;-54
2022/01/20 10:02:23;;;;;;;5.63;3.80;;;;;;;;;;5033710;28;20421;-58
2022/01/20 10:04:49;;;;;;;7.57;3.60;;;;;;;;;;5034021;28;20949;-51
2022/01/20 10:07:15;;;;;;;38.77;4.07;;;;;;;;;;5033847;28;20860;-58
2022/01/20 10:09:45;;;;;;;13.63;4.30;;;;;;;;;;5043216;28;20449;-58
2022/01/20 10:12:12;;;;;;;6.20;3.83;;;;;;;;;;5033617;28;20409;-51
2022/01/20 10:14:41;;;;;;;10.30;4.40;;;;;;;;;;5033567;28;20413;-52
2022/01/20 10:17:19;;;;;;;8.20;3.57;;;;;;;;;;5033423;28;20651;-61
2022/01/20 10:19:46;;;;;;;14.83;4.00;;;;;;;;;;5032290;28;20443;-53
2022/01/20 10:22:14;;;;;;;4.50;3.50;;;;;;;;;;5031832;28;20441;-51
2022/01/20 10:24:40;;;;;;;8.87;3.43;;;;;;;;;;5033275;28;20470;-52
2022/01/20 10:27:13;;;;;;;9.60;4.10;;;;;;;;;;5040219;28;20926;-59
2022/01/20 10:29:40;;;;;;;5.53;3.63;;;;;;;;;;5031538;28;20412;-55
2022/01/20 10:32:06;;;;;;;9.97;4.10;;;;;;;;;;5033201;28;20440;-62
2022/01/20 10:34:35;;;;;;;9.50;3.97;;;;;;;;;;5032937;28;20409;-60
2022/01/20 10:37:02;;;;;;;9.20;3.43;;;;;;;;;;5033594;28;20412;-60
2022/01/20 10:39:30;;;;;;;14.40;3.87;;;;;;;;;;5033421;28;20431;-64
2022/01/20 10:42:03;;;;;;;12.67;3.67;;;;;;;;;;5033152;28;20417;-53
2022/01/20 10:44:29;;;;;;;10.90;4.20;;;;;;;;;;5033143;28;20409;-63
2022/01/20 10:46:58;;;;;;;6.47;3.77;;;;;;;;;;5033024;28;20532;-54
2022/01/20 10:49:30;;;;;;;10.97;3.77;;;;;;;;;;5040599;28;20814;-59
2022/01/20 10:51:57;;;;;;;8.80;3.97;;;;;;;;;;5030692;28;20812;-54
2022/01/20 10:54:23;;;;;;;11.97;3.87;;;;;;;;;;5032771;28;20420;-62
2022/01/20 10:56:54;;;;;;;5.13;3.40;;;;;;;;;;5031628;28;20498;-52
2022/01/20 10:59:21;;;;;;;4.70;3.70;;;;;;;;;;5032672;28;20400;-58
2022/01/20 11:02:00;;;;;;;25.73;5.90;;;;;;;;;;5032872;28;20425;-53
2022/01/20 11:04:27;;;;;;;11.07;4.00;;;;;;;;;;5031777;28;20404;-65
2022/01/20 11:06:55;;;;;;;8.67;3.70;;;;;;;;;;5030222;28;20468;-53
2022/01/20 11:09:23;;;;;;;17.10;4.37;;;;;;;;;;5032645;28;20555;-57
2022/01/20 11:11:49;;;;;;;19.17;4.50;;;;;;;;;;5032939;28;20558;-53
2022/01/20 11:14:15;;;;;;;14.27;4.70;;;;;;;;;;5033057;28;20423;-59
2022/01/20 11:16:42;;;;;;;11.53;3.97;;;;;;;;;;5033144;28;20519;-52
2022/01/20 11:19:15;;;;;;;14.57;4.07;;;;;;;;;;5032546;28;20405;-53
2022/01/20 11:21:43;;;;;;;11.70;4.10;;;;;;;;;;5032400;28;20965;-55
2022/01/20 11:24:23;;;;;;;5.87;3.70;;;;;;;;;;5046918;28;20515;-54
2022/01/20 11:26:53;;;;;;;10.50;3.87;;;;;;;;;;5052398;28;20979;-56
2022/01/20 11:29:20;;;;;;;8.93;3.87;;;;;;;;;;5051057;28;20784;-50
2022/01/20 11:31:47;;;;;;;5.67;3.90;;;;;;;;;;5050807;28;20426;-51
2022/01/20 11:34:14;;;;;;;4.30;3.10;;;;;;;;;;5052428;28;20415;-56
2022/01/20 11:36:41;;;;;;;10.13;4.40;;;;;;;;;;5052433;28;20892;-52
2022/01/20 11:39:07;;;;;;;6.97;3.90;;;;;;;;;;5052140;28;20442;-54
2022/01/20 11:41:46;;;;;;;9.70;3.67;;;;;;;;;;5050635;28;20415;-52
2022/01/20 11:44:13;;;;;;;10.10;3.93;;;;;;;;;;5052219;28;20404;-52
2022/01/20 11:46:40;;;;;;;14.73;3.43;;;;;;;;;;5051962;28;20459;-54
2022/01/20 11:49:08;;;;;;;9.10;3.83;;;;;;;;;;5052183;28;20420;-57
2022/01/20 11:51:49;;;;;;;5.50;3.83;;;;;;;;;;5052037;28;20438;-51
2022/01/20 11:54:34;;;;;;;8.87;3.77;;;;;;;;;;5052308;28;20422;-60
2022/01/20 11:57:06;;;;;;;11.20;3.57;;;;;;;;;;5051900;28;20404;-52
2022/01/20 11:59:40;;;;;;;13.13;4.07;;;;;;;;;;5043769;28;20421;-59
2022/01/20 12:02:06;;;;;;;7.03;4.10;;;;;;;;;;5027742;28;20419;-63
2022/01/20 12:04:35;;;;;;;4.80;3.33;;;;;;;;;;5031522;28;20423;-57
2022/01/20 12:07:02;;;;;;;7.23;3.80;;;;;;;;;;5031468;28;20468;-55
2022/01/20 12:09:29;;;;;;;10.17;4.10;;;;;;;;;;5030113;28;20419;-64
2022/01/20 12:11:55;;;;;;;6.20;4.20;;;;;;;;;;5038873;28;20786;-64
2022/01/20 12:14:35;;;;;;;12.33;3.63;;;;;;;;;;5031264;28;20435;-55
2022/01/20 12:17:02;;;;;;;9.23;4.10;;;;;;;;;;5031400;28;20493;-62
2022/01/20 12:19:27;;;;;;;6.43;3.40;;;;;;;;;;5031053;28;20488;-57
2022/01/20 12:21:53;;;;;;;21.50;5.07;;;;;;;;;;5030743;28;20868;-57
2022/01/20 12:24:20;;;;;;;6.70;3.43;;;;;;;;;;5031162;28;20729;-58
2022/01/20 12:26:46;;;;;;;9.83;3.60;;;;;;;;;;5031251;28;20452;-53
2022/01/20 12:29:13;;;;;;;6.10;3.43;;;;;;;;;;5031626;28;20882;-54
2022/01/20 12:31:52;;;;;;;3.40;3.13;;;;;;;;;;5035559;28;20432;-54
2022/01/20 12:34:19;;;;;;;7.60;3.30;;;;;;;;;;5031120;28;20423;-51
2022/01/20 12:36:56;;;;;;;9.83;3.37;;;;;;;;;;5031247;28;20413;-52
2022/01/20 12:39:26;;;;;;;5.60;4.20;;;;;;;;;;5031176;28;20412;-57
2022/01/20 12:42:00;;;;;;;6.40;3.73;;;;;;;;;;5031357;28;20508;-59
2022/01/20 12:44:39;;;;;;;17.90;3.73;;;;;;;;;;5028779;28;20759;-52
2022/01/20 12:47:05;;;;;;;7.93;3.37;;;;;;;;;;5027690;28;20468;-51
2022/01/20 12:49:31;;;;;;;13.03;3.63;;;;;;;;;;5030992;28;20412;-51
2022/01/20 12:51:58;;;;;;;6.10;3.23;;;;;;;;;;5031198;28;20451;-52
2022/01/20 12:54:27;;;;;;;10.37;3.30;;;;;;;;;;5028558;28;20413;-55
2022/01/20 12:56:58;;;;;;;7.33;3.23;;;;;;;;;;5031054;28;20420;-61
2022/01/20 12:59:28;;;;;;;10.80;4.07;;;;;;;;;;5031224;28;20845;-53
2022/01/20 13:01:55;;;;;;;11.37;4.70;;;;;;;;;;5031125;28;20417;-54
2022/01/20 13:04:23;;;;;;;7.20;3.60;;;;;;;;;;5030971;28;20815;-56
2022/01/20 13:07:01;;;;;;;13.33;4.50;;;;;;;;;;5030738;28;20455;-55
2022/01/20 13:09:48;;;;;;;8.93;3.70;;;;;;;;;;5029040;28;20413;-57
2022/01/20 13:12:16;;;;;;;6.00;3.40;;;;;;;;;;5030055;28;20902;-54
2022/01/20 13:14:49;;;;;;;5.03;3.43;;;;;;;;;;5031057;28;20762;-52
2022/01/20 13:17:23;;;;;;;6.67;3.27;;;;;;;;;;5031513;28;20774;-51
2022/01/20 13:19:50;;;;;;;5.43;3.57;;;;;;;;;;5031605;28;20409;-53
2022/01/20 13:22:28;;;;;;;7.47;3.50;;;;;;;;;;5034354;28;20451;-54
2022/01/20 13:24:54;;;;;;;7.13;3.57;;;;;;;;;;5034646;28;21043;-53
2022/01/20 13:27:20;;;;;;;7.00;3.53;;;;;;;;;;5034888;28;20468;-51
2022/01/20 13:29:49;;;;;;;3.77;3.47;;;;;;;;;;5034666;28;20415;-53
2022/01/20 13:32:16;;;;;;;10.40;3.60;;;;;;;;;;5034807;28;20413;-51
2022/01/20 13:34:52;;;;;;;8.23;4.00;;;;;;;;;;5050338;28;20416;-53
2022/01/20 13:37:18;;;;;;;5.10;3.40;;;;;;;;;;5034474;28;20419;-54
2022/01/20 13:39:45;;;;;;;13.73;3.90;;;;;;;;;;5034569;28;20412;-54
2022/01/20 13:42:33;;;;;;;10.77;3.87;;;;;;;;;;5049913;28;20420;-52
2022/01/20 13:45:06;;;;;;;8.73;3.87;;;;;;;;;;5034189;28;20420;-53
2022/01/20 13:47:32;;;;;;;13.83;3.80;;;;;;;;;;5049332;28;20522;-53
2022/01/20 13:49:58;;;;;;;11.17;4.17;;;;;;;;;;5034144;28;20405;-52
2022/01/20 13:52:24;;;;;;;6.50;3.40;;;;;;;;;;5034285;28;20901;-51
2022/01/20 13:54:52;;;;;;;6.73;3.43;;;;;;;;;;5034101;28;20412;-57
2022/01/20 13:57:19;;;;;;;13.27;4.10;;;;;;;;;;5034319;28;20439;-52
2022/01/20 13:59:55;;;;;;;7.43;3.60;;;;;;;;;;5034560;28;20408;-53
2022/01/20 14:02:25;;;;;;;13.27;4.77;;;;;;;;;;5034157;28;20416;-51
2022/01/20 14:04:52;;;;;;;4.27;3.87;;;;;;;;;;5034435;28;20435;-52
2022/01/20 14:07:20;;;;;;;11.17;3.97;;;;;;;;;;5049629;28;20480;-56
2022/01/20 14:09:46;;;;;;;2.97;2.73;;;;;;;;;;5034070;28;20413;-51
2022/01/20 14:12:12;;;;;;;5.17;3.47;;;;;;;;;;5033930;28;20424;-53
2022/01/20 14:14:38;;;;;;;4.53;4.23;;;;;;;;;;5033860;28;20400;-51
2022/01/20 14:17:07;;;;;;;7.43;3.40;;;;;;;;;;5034017;28;20423;-52
2022/01/20 14:19:40;;;;;;;8.73;4.23;;;;;;;;;;5033577;28;20416;-53
2022/01/20 14:22:06;;;;;;;4.93;3.60;;;;;;;;;;5033435;28;20431;-53
2022/01/20 14:24:32;;;;;;;12.07;4.00;;;;;;;;;;5033762;28;20444;-55
2022/01/20 14:27:08;;;;;;;8.27;4.20;;;;;;;;;;5033700;28;20460;-51
2022/01/20 14:29:34;;;;;;;10.57;4.40;;;;;;;;;;5033552;28;20565;-57
2022/01/20 14:32:00;;;;;;;7.07;4.13;;;;;;;;;;5033786;28;20419;-52
2022/01/20 14:34:26;;;;;;;10.33;3.47;;;;;;;;;;5032570;28;20428;-54
2022/01/20 14:36:52;;;;;;;5.03;4.27;;;;;;;;;;5033472;28;20422;-53
2022/01/20 14:39:18;;;;;;;6.33;3.30;;;;;;;;;;5033560;28;20415;-53
2022/01/20 14:41:44;;;;;;;13.07;3.70;;;;;;;;;;5033591;28;20846;-51
2022/01/20 14:44:10;;;;;;;9.40;3.97;;;;;;;;;;5033452;28;20420;-54
2022/01/20 14:46:36;;;;;;;3.73;3.43;;;;;;;;;;5033360;28;20851;-52
2022/01/20 14:49:02;;;;;;;11.20;3.87;;;;;;;;;;5033224;28;20488;-53
2022/01/20 14:51:28;;;;;;;10.43;4.10;;;;;;;;;;5032205;28;20413;-55
2022/01/20 14:53:54;;;;;;;4.80;3.70;;;;;;;;;;5033169;28;20413;-52
2022/01/20 14:56:20;;;;;;;7.37;3.60;;;;;;;;;;5033102;28;20448;-56
2022/01/20 14:58:47;;;;;;;5.20;3.37;;;;;;;;;;5033462;28;20421;-53
2022/01/20 15:01:13;;;;;;;10.37;4.00;;;;;;;;;;5049163;28;20419;-56
2022/01/20 15:03:39;;;;;;;8.30;3.10;;;;;;;;;;5031480;28;20420;-50
2022/01/20 15:06:05;;;;;;;13.23;4.27;;;;;;;;;;5032133;28;20419;-57
2022/01/20 15:08:33;;;;;;;6.27;3.90;;;;;;;;;;5032912;28;20478;-54
2022/01/20 15:10:59;;;;;;;12.47;4.93;;;;;;;;;;5032860;28;20423;-52
2022/01/20 15:13:25;;;;;;;5.37;3.40;;;;;;;;;;5032883;28;20539;-57
2022/01/20 15:15:51;;;;;;;4.00;3.60;;;;;;;;;;5032801;28;20806;-54
2022/01/20 15:18:17;;;;;;;7.90;3.40;;;;;;;;;;5033029;28;20885;-60
2022/01/20 15:20:43;;;;;;;8.93;3.97;;;;;;;;;;5032845;28;20405;-53
2022/01/20 15:23:10;;;;;;;5.97;3.40;;;;;;;;;;5032537;28;20464;-53
2022/01/20 15:25:36;;;;;;;3.87;3.17;;;;;;;;;;5025751;28;20432;-53
2022/01/20 15:28:02;;;;;;;3.13;2.80;;;;;;;;;;5012885;28;20818;-62
2022/01/20 15:30:30;;;;;;;7.90;3.03;;;;;;;;;;5011661;28;20473;-61
2022/01/20 15:32:56;;;;;;;10.20;3.87;;;;;;;;;;5011968;28;20436;-53
2022/01/20 15:35:23;;;;;;;3.33;3.03;;;;;;;;;;5012739;28;20410;-56
2022/01/20 15:37:49;;;;;;;3.87;3.57;;;;;;;;;;5011309;28;20421;-56
2022/01/20 15:40:20;;;;;;;3.40;3.20;;;;;;;;;;5012809;28;20417;-54
2022/01/20 15:42:46;;;;;;;2.33;2.20;;;;;;;;;;5012299;28;20417;-60
2022/01/20 15:45:12;;;;;;;8.87;3.20;;;;;;;;;;5012754;28;20417;-53